Главная страница
METAR-TAF:

METAR-TAF

Аэропорты :

Нью-Хейвен, Коннектикут, США

широта: 41-15-50N, долгота: 072-53-14W, высота над уровнем моря: 4 м

Текущие метеонаблюдения

Эта сводка был подготовлена 36 минут назад, в 14:53 UTC
Ветер 6 Узел от северо-северо-восточный
Температура -1°C
Влажность 40%
Давление 1036 hPa
Видимость: 16.1 км
небольшая облачность на высоте 4000 фута
Сплошная облачность на высоте 15000 фута

METAR: KHVN 151453Z 02006KT 10SM FEW040 OVC150 M01/M13 A3059 RMK AO2 SLP359 T10111128 54000

Время: 10:29 (15:29 UTC)


TAF: отсутствует

Метеонаблюдения и прогнозы для более 4000 аэропортов (сводки METAR и TAF).

Имеющиеся станции представлены на карте желтыми и красными точками.

Чтобы увидеть название станции, наведите на нее мышь.

Затем щелкните, чтобы увидеть метеонаблюдения и метеопрогнозы.

Управление картой: чтобы увеличить масштаб, щелкните зеленые кнопки с черным крестиком; чтобы уменьшить масштаб, щелкните зеленую кнопку с тире; для просмотра соседних карт щелкайте зеленые стрелки.


METAR-TAF: